createdAt,value
2018-06-30T00:02:14.870Z,56.98
2018-06-30T00:04:49.674Z,57.04
2018-06-30T00:07:20.069Z,57.58
2018-06-30T00:09:49.656Z,57.41
2018-06-30T00:12:19.460Z,56.97
2018-06-30T00:14:49.040Z,57.53
2018-06-30T00:17:18.571Z,57.77
2018-06-30T00:19:48.211Z,57.89
2018-06-30T00:22:17.640Z,57.19
2018-06-30T00:24:47.715Z,58.08
2018-06-30T00:27:32.156Z,57.73
2018-06-30T00:30:01.619Z,57.54
2018-06-30T00:32:31.147Z,57.17
2018-06-30T00:35:00.700Z,57.08
2018-06-30T00:37:30.167Z,58.02
2018-06-30T00:39:59.677Z,57.33
2018-06-30T00:42:29.219Z,56.96
2018-06-30T00:44:58.725Z,57.08
2018-06-30T00:47:28.156Z,57.58
2018-06-30T00:49:58.140Z,57.42
2018-06-30T00:52:27.749Z,56.78
2018-06-30T00:54:57.284Z,56.13
2018-06-30T00:57:26.888Z,55.23
2018-06-30T00:59:56.369Z,56.05
2018-06-30T01:02:25.919Z,55.56
2018-06-30T01:04:55.475Z,55.95
2018-06-30T01:07:25.084Z,55.26
2018-06-30T01:09:54.662Z,54.78
2018-06-30T01:12:24.514Z,54.25
2018-06-30T01:14:54.082Z,54.45
2018-06-30T01:17:23.690Z,54.72
2018-06-30T01:19:53.274Z,53.69
2018-06-30T01:22:22.834Z,54.85
2018-06-30T01:24:52.413Z,54.44
2018-06-30T01:27:21.977Z,54.28
2018-06-30T01:29:51.490Z,54.86
2018-06-30T01:32:21.102Z,54.77
2018-06-30T01:34:50.708Z,55.17
2018-06-30T01:37:20.273Z,54.71
2018-06-30T01:39:49.800Z,55.70
2018-06-30T01:42:20.095Z,55.26
2018-06-30T01:44:49.550Z,55.17
2018-06-30T01:47:19.207Z,54.38
2018-06-30T01:49:48.779Z,54.04
2018-06-30T01:52:18.554Z,54.54
2018-06-30T01:54:48.112Z,55.67
2018-06-30T01:57:17.694Z,54.88
2018-06-30T01:59:47.277Z,54.76
2018-06-30T02:02:16.910Z,56.00
2018-06-30T02:04:46.579Z,55.35
2018-06-30T02:07:16.219Z,54.87
2018-06-30T02:09:45.791Z,55.40
2018-06-30T02:12:15.396Z,55.54
2018-06-30T02:14:45.060Z,54.69
2018-06-30T02:17:14.595Z,54.72
2018-06-30T02:19:44.442Z,55.47
2018-06-30T02:22:13.990Z,55.83
2018-06-30T02:24:43.655Z,55.48
2018-06-30T02:27:13.146Z,55.16
2018-06-30T02:29:42.698Z,55.39
2018-06-30T02:32:12.203Z,55.90
2018-06-30T02:34:41.757Z,55.55
2018-06-30T02:37:11.254Z,55.85
2018-06-30T02:39:40.767Z,56.39
2018-06-30T02:42:10.616Z,56.28
2018-06-30T02:44:40.137Z,56.12
2018-06-30T02:47:09.739Z,56.45
2018-06-30T02:49:39.302Z,57.01
2018-06-30T02:52:08.834Z,57.55
2018-06-30T02:54:38.436Z,55.95
2018-06-30T02:57:08.012Z,56.59
2018-06-30T02:59:37.586Z,56.62
2018-06-30T03:02:07.122Z,57.24
2018-06-30T03:04:36.833Z,57.21
2018-06-30T03:07:06.470Z,57.42
2018-06-30T03:09:36.100Z,56.93
2018-06-30T03:12:05.691Z,57.31
2018-06-30T03:14:35.287Z,57.12
2018-06-30T03:17:04.901Z,57.48
2018-06-30T03:19:34.476Z,57.83
2018-06-30T03:22:04.005Z,57.10
2018-06-30T03:24:33.611Z,56.37
2018-06-30T03:27:03.418Z,57.28
2018-06-30T03:29:32.955Z,56.73
2018-06-30T03:32:02.536Z,57.43
2018-06-30T03:34:32.126Z,56.79
2018-06-30T03:37:01.670Z,56.78
2018-06-30T03:39:31.192Z,56.33
2018-06-30T03:42:00.744Z,56.64
2018-06-30T03:44:30.282Z,56.36
2018-06-30T03:46:59.797Z,55.92
2018-06-30T03:49:29.945Z,56.21
2018-06-30T03:51:59.394Z,56.33
2018-06-30T03:54:28.862Z,56.57
2018-06-30T03:56:58.351Z,56.45
2018-06-30T03:59:27.819Z,56.46
2018-06-30T04:01:57.334Z,56.11
2018-06-30T04:04:26.890Z,56.66
2018-06-30T04:06:56.454Z,56.08
2018-06-30T04:09:26.155Z,56.54
2018-06-30T04:11:55.915Z,56.95
2018-06-30T04:14:25.374Z,57.51
2018-06-30T04:16:54.886Z,56.82
2018-06-30T04:19:24.520Z,57.00
2018-06-30T04:21:54.071Z,57.01
2018-06-30T04:24:23.711Z,57.47
2018-06-30T04:26:53.349Z,57.46
2018-06-30T04:29:23.406Z,56.34
2018-06-30T04:31:52.974Z,55.79
2018-06-30T04:34:22.628Z,56.70
2018-06-30T04:36:52.087Z,56.60
2018-06-30T04:39:21.581Z,55.76
2018-06-30T04:41:51.159Z,54.98
2018-06-30T04:44:20.695Z,54.61
2018-06-30T04:46:50.237Z,55.39
2018-06-30T04:49:19.810Z,54.72
2018-06-30T04:51:49.295Z,53.80
2018-06-30T04:54:18.785Z,53.42
2018-06-30T04:56:48.668Z,53.78
2018-06-30T04:59:18.173Z,53.04
2018-06-30T05:01:47.920Z,53.62
2018-06-30T05:04:17.471Z,53.73
2018-06-30T05:06:46.967Z,54.59
2018-06-30T05:09:16.470Z,54.03
2018-06-30T05:11:45.944Z,53.83
2018-06-30T05:14:15.458Z,53.60
2018-06-30T05:16:45.041Z,52.28
2018-06-30T05:19:15.256Z,52.69
2018-06-30T05:21:44.726Z,52.50
2018-06-30T05:24:14.308Z,52.32
2018-06-30T05:26:44.436Z,54.04
2018-06-30T05:29:13.979Z,53.53
2018-06-30T05:31:43.983Z,53.64
2018-06-30T05:34:13.501Z,52.86
2018-06-30T05:36:42.971Z,52.17
2018-06-30T05:39:12.473Z,52.80
2018-06-30T05:41:42.064Z,52.77
2018-06-30T05:44:11.667Z,52.46
2018-06-30T05:46:41.231Z,51.64
2018-06-30T05:49:10.707Z,51.03
2018-06-30T05:51:40.240Z,50.32
2018-06-30T05:54:09.815Z,50.00
2018-06-30T05:56:39.519Z,49.48
2018-06-30T05:59:09.081Z,48.94
2018-06-30T06:01:38.352Z,48.05
2018-06-30T06:04:08.329Z,49.45
2018-06-30T06:06:37.853Z,49.72
2018-06-30T06:09:10.410Z,48.76
2018-06-30T06:11:39.932Z,48.26
2018-06-30T06:14:09.780Z,49.16
2018-06-30T06:16:39.366Z,49.18
2018-06-30T06:19:09.444Z,48.61
2018-06-30T06:21:38.966Z,49.45
2018-06-30T06:24:08.718Z,49.49
2018-06-30T06:26:38.203Z,48.99
2018-06-30T06:29:08.878Z,48.83
2018-06-30T06:31:38.493Z,47.05
2018-06-30T06:34:08.065Z,46.66
2018-06-30T06:36:37.602Z,46.52
2018-06-30T06:39:09.522Z,46.61
2018-06-30T06:41:39.081Z,46.18
2018-06-30T06:44:08.570Z,45.42
2018-06-30T06:46:38.369Z,45.75
2018-06-30T06:49:07.936Z,44.24
2018-06-30T06:51:37.457Z,44.15
2018-06-30T06:54:07.051Z,44.02
2018-06-30T06:56:36.529Z,43.22
2018-06-30T06:59:06.130Z,40.89
2018-06-30T07:01:35.662Z,41.28
2018-06-30T07:04:05.176Z,41.79
2018-06-30T07:06:34.797Z,40.97
2018-06-30T07:09:06.515Z,40.79
2018-06-30T07:11:35.778Z,40.08
2018-06-30T07:14:05.761Z,39.73
2018-06-30T07:16:35.268Z,40.06
2018-06-30T07:19:04.731Z,39.55
2018-06-30T07:21:34.273Z,40.78
2018-06-30T07:24:03.803Z,41.78
2018-06-30T07:26:33.349Z,39.57
2018-06-30T07:29:02.859Z,39.52
2018-06-30T07:31:32.474Z,39.47
2018-06-30T07:34:01.776Z,39.04
2018-06-30T07:36:31.279Z,38.61
2018-06-30T07:39:00.798Z,39.36
2018-06-30T07:41:30.333Z,40.17
2018-06-30T07:43:59.795Z,38.97
2018-06-30T07:46:29.351Z,38.99
2018-06-30T07:48:58.811Z,39.10
2018-06-30T07:51:28.014Z,37.88
2018-06-30T07:53:57.892Z,38.88
2018-06-30T07:56:27.415Z,37.90
2018-06-30T07:58:56.922Z,36.70
2018-06-30T08:01:26.429Z,37.67
2018-06-30T08:03:55.978Z,37.63
2018-06-30T08:06:25.433Z,37.28
2018-06-30T08:11:16.810Z,36.57
2018-06-30T08:13:46.346Z,35.97
2018-06-30T08:16:15.852Z,35.94
2018-06-30T08:18:45.332Z,35.35
2018-06-30T08:21:14.938Z,35.98
2018-06-30T08:23:44.526Z,36.19
2018-06-30T08:26:14.489Z,35.30
2018-06-30T08:28:44.031Z,33.81
2018-06-30T08:31:13.580Z,34.88
2018-06-30T08:33:44.220Z,34.68
2018-06-30T08:36:13.765Z,34.17
2018-06-30T08:38:43.279Z,32.81
2018-06-30T08:41:12.798Z,33.35
2018-06-30T08:43:42.339Z,32.33
2018-06-30T08:46:11.884Z,34.06
2018-06-30T08:48:41.483Z,34.24
2018-06-30T08:51:11.051Z,34.21
2018-06-30T08:53:40.605Z,33.80
2018-06-30T08:56:10.260Z,32.28
2018-06-30T08:58:40.203Z,33.71
2018-06-30T09:01:09.675Z,32.34
2018-06-30T09:03:39.339Z,31.75
2018-06-30T09:06:09.357Z,33.09
2018-06-30T09:08:39.041Z,30.78
2018-06-30T09:11:08.593Z,31.21
2018-06-30T09:13:38.099Z,32.06
2018-06-30T09:16:07.689Z,32.30
2018-06-30T09:18:37.624Z,32.60
2018-06-30T09:21:07.131Z,29.75
2018-06-30T09:23:36.712Z,31.65
2018-06-30T09:26:06.353Z,31.59
2018-06-30T09:28:35.977Z,31.33
2018-06-30T09:31:05.584Z,31.24
2018-06-30T09:33:35.119Z,31.27
2018-06-30T09:36:04.739Z,31.05
2018-06-30T09:38:34.273Z,31.97
2018-06-30T09:41:03.891Z,31.73
2018-06-30T09:43:33.418Z,30.85
2018-06-30T09:46:02.706Z,30.69
2018-06-30T09:48:32.242Z,30.50
2018-06-30T09:51:01.793Z,30.29
2018-06-30T09:53:31.235Z,29.75
2018-06-30T09:56:00.857Z,29.46
2018-06-30T09:58:30.335Z,29.26
2018-06-30T10:01:05.047Z,28.99
2018-06-30T10:03:34.620Z,30.07
2018-06-30T10:06:04.223Z,29.23
2018-06-30T10:08:33.878Z,30.06
2018-06-30T10:11:03.536Z,29.17
2018-06-30T10:13:33.056Z,28.87
2018-06-30T10:16:02.578Z,28.27
2018-06-30T10:18:32.099Z,27.30
2018-06-30T10:21:01.690Z,26.99
2018-06-30T10:23:31.970Z,26.75
2018-06-30T10:26:01.696Z,26.58
2018-06-30T10:28:32.133Z,26.29
2018-06-30T10:31:01.615Z,25.62
2018-06-30T10:33:30.833Z,26.52
2018-06-30T10:36:00.364Z,28.14
2018-06-30T10:38:29.910Z,27.24
2018-06-30T10:40:59.455Z,26.95
2018-06-30T10:43:29.636Z,26.29
2018-06-30T10:45:59.103Z,26.50
2018-06-30T10:48:28.609Z,26.21
2018-06-30T10:50:58.130Z,28.09
2018-06-30T10:53:27.575Z,26.23
2018-06-30T10:55:57.016Z,26.25
2018-06-30T10:58:26.583Z,26.89
2018-06-30T11:00:56.098Z,27.42
2018-06-30T11:03:25.638Z,26.51
2018-06-30T11:05:55.305Z,26.94
2018-06-30T11:08:24.760Z,26.05
2018-06-30T11:10:54.271Z,26.08
2018-06-30T11:13:23.794Z,25.74
2018-06-30T11:15:53.344Z,24.85
2018-06-30T11:18:22.547Z,25.24
2018-06-30T11:20:52.023Z,24.00
2018-06-30T11:25:42.857Z,22.87
2018-06-30T11:28:13.120Z,24.24
2018-06-30T11:30:42.627Z,25.53
2018-06-30T11:33:12.176Z,25.69
2018-06-30T11:35:41.688Z,26.03
2018-06-30T11:38:11.162Z,25.02
2018-06-30T11:40:40.725Z,25.92
2018-06-30T11:43:10.189Z,25.58
2018-06-30T11:45:39.763Z,25.24
2018-06-30T11:48:09.234Z,23.24
2018-06-30T11:50:38.889Z,23.30
2018-06-30T11:53:08.434Z,23.87
2018-06-30T11:55:37.962Z,22.41
2018-06-30T11:58:07.701Z,24.13
2018-06-30T12:00:37.226Z,24.14
2018-06-30T12:03:06.771Z,24.71
2018-06-30T12:05:36.397Z,23.37
2018-06-30T12:08:05.991Z,23.62
2018-06-30T12:10:35.487Z,22.53
2018-06-30T12:13:05.424Z,22.86
2018-06-30T12:15:34.586Z,23.22
2018-06-30T12:18:04.098Z,22.07
2018-06-30T12:20:33.623Z,23.04
2018-06-30T12:23:03.120Z,22.97
2018-06-30T12:25:32.603Z,23.73
2018-06-30T12:28:02.115Z,22.70
2018-06-30T12:30:31.642Z,21.85
2018-06-30T12:33:01.121Z,23.14
2018-06-30T12:35:31.042Z,22.92
2018-06-30T12:38:00.530Z,22.81
2018-06-30T12:40:30.109Z,24.07
2018-06-30T12:42:59.964Z,23.78
2018-06-30T12:45:29.836Z,22.94
2018-06-30T12:47:59.385Z,22.72
2018-06-30T12:50:28.874Z,23.39
2018-06-30T12:52:58.676Z,23.83
2018-06-30T12:55:28.299Z,23.18
2018-06-30T12:57:58.268Z,23.46
2018-06-30T13:00:27.799Z,24.31
2018-06-30T13:02:57.267Z,24.16
2018-06-30T13:05:26.762Z,23.07
2018-06-30T13:07:56.315Z,23.41
2018-06-30T13:10:25.758Z,23.35
2018-06-30T13:12:55.352Z,23.43
2018-06-30T13:15:24.923Z,22.18
2018-06-30T13:17:54.390Z,22.77
2018-06-30T13:20:25.204Z,22.63
2018-06-30T13:22:54.705Z,23.40
2018-06-30T13:25:24.206Z,23.04
2018-06-30T13:27:53.773Z,23.21
2018-06-30T13:30:23.316Z,22.34
2018-06-30T13:32:52.825Z,21.70
2018-06-30T13:35:22.353Z,22.41
2018-06-30T13:37:51.901Z,21.27
2018-06-30T13:40:21.407Z,21.32
2018-06-30T13:42:51.233Z,21.38
2018-06-30T13:45:20.765Z,21.55
2018-06-30T13:47:50.247Z,22.85
2018-06-30T13:50:19.896Z,23.36
2018-06-30T13:52:49.460Z,23.53
2018-06-30T13:55:18.981Z,23.66
2018-06-30T13:57:48.472Z,23.42
2018-06-30T14:00:17.958Z,23.10
2018-06-30T14:02:47.489Z,23.94
2018-06-30T14:05:17.288Z,22.96
2018-06-30T14:07:46.808Z,23.75
2018-06-30T14:10:16.388Z,22.64
2018-06-30T14:12:45.944Z,22.85
2018-06-30T14:15:15.523Z,22.86
2018-06-30T14:17:44.743Z,23.40
2018-06-30T14:20:14.287Z,23.87
2018-06-30T14:22:43.825Z,23.61
2018-06-30T14:25:13.334Z,24.51
2018-06-30T14:27:43.080Z,24.59
2018-06-30T14:30:13.479Z,23.03
2018-06-30T14:32:43.425Z,23.35
2018-06-30T14:35:12.934Z,23.85
2018-06-30T14:37:42.496Z,23.00
2018-06-30T14:40:11.957Z,22.70
2018-06-30T14:42:41.506Z,22.71
2018-06-30T14:45:11.108Z,22.39
2018-06-30T14:47:40.575Z,23.42
2018-06-30T14:50:10.442Z,23.44
2018-06-30T14:52:39.929Z,24.45
2018-06-30T14:55:09.492Z,24.75
2018-06-30T14:57:38.943Z,24.30
2018-06-30T15:00:10.079Z,23.21
2018-06-30T15:02:40.309Z,23.44
2018-06-30T15:05:11.542Z,22.67
2018-06-30T15:07:41.247Z,23.34
2018-06-30T15:10:10.937Z,23.87
2018-06-30T15:12:40.481Z,23.63
2018-06-30T15:15:10.353Z,24.07
2018-06-30T15:17:39.813Z,24.34
2018-06-30T15:20:09.404Z,23.84
2018-06-30T15:22:38.998Z,24.32
2018-06-30T15:25:08.560Z,23.31
2018-06-30T15:27:38.092Z,23.17
2018-06-30T15:30:07.790Z,23.85
2018-06-30T15:32:37.311Z,24.13
2018-06-30T15:35:06.963Z,24.76
2018-06-30T15:37:36.524Z,23.85
2018-06-30T15:40:07.114Z,24.21
2018-06-30T15:42:36.787Z,23.89
2018-06-30T15:45:08.638Z,24.29
2018-06-30T15:47:39.202Z,24.67
2018-06-30T15:50:08.767Z,23.79
2018-06-30T15:52:38.308Z,24.34
2018-06-30T15:55:08.378Z,23.37
2018-06-30T15:57:37.859Z,23.89
2018-06-30T16:00:08.250Z,24.56
2018-06-30T16:02:37.777Z,24.15
2018-06-30T16:05:07.339Z,23.46
2018-06-30T16:07:36.880Z,24.28
2018-06-30T16:10:06.987Z,24.50
2018-06-30T16:12:36.487Z,25.35
2018-06-30T16:15:06.228Z,24.75
2018-06-30T16:17:36.064Z,24.20
2018-06-30T16:20:05.874Z,23.88
2018-06-30T16:22:35.347Z,24.46
2018-06-30T16:25:05.266Z,24.87
2018-06-30T16:27:34.871Z,24.81
2018-06-30T16:30:05.307Z,24.12
2018-06-30T16:32:35.012Z,24.76
2018-06-30T16:35:04.647Z,24.35
2018-06-30T16:37:34.092Z,24.21
2018-06-30T16:40:03.870Z,23.66
2018-06-30T16:42:33.124Z,24.26
2018-06-30T16:45:02.826Z,23.93
2018-06-30T16:47:32.385Z,23.87
2018-06-30T16:50:01.964Z,24.27
2018-06-30T16:52:31.506Z,23.57
2018-06-30T16:55:02.013Z,24.19
2018-06-30T16:57:31.641Z,24.02
2018-06-30T17:00:01.176Z,24.04
2018-06-30T17:02:30.754Z,24.20
2018-06-30T17:05:00.293Z,24.01
2018-06-30T17:07:29.821Z,25.09
2018-06-30T17:09:59.464Z,25.97
2018-06-30T17:12:28.978Z,24.96
2018-06-30T17:14:58.288Z,25.50
2018-06-30T17:17:28.052Z,25.83
2018-06-30T17:19:57.930Z,26.26
2018-06-30T17:22:27.554Z,25.31
2018-06-30T17:24:57.212Z,26.37
2018-06-30T17:27:26.883Z,25.68
2018-06-30T17:29:56.478Z,26.37
2018-06-30T17:32:26.300Z,26.93
2018-06-30T17:34:56.046Z,26.09
2018-06-30T17:37:25.716Z,27.26
2018-06-30T17:39:55.644Z,27.06
2018-06-30T17:42:25.295Z,28.02
2018-06-30T17:44:55.099Z,26.98
2018-06-30T17:47:24.727Z,27.91
2018-06-30T17:49:54.313Z,27.10
2018-06-30T17:52:23.925Z,27.50
2018-06-30T17:54:53.543Z,27.18
2018-06-30T17:57:23.388Z,28.90
2018-06-30T17:59:52.964Z,29.27
2018-06-30T18:02:22.718Z,28.94
2018-06-30T18:04:52.215Z,29.87
2018-06-30T18:07:21.727Z,28.78
2018-06-30T18:09:51.239Z,28.88
2018-06-30T18:12:20.889Z,30.08
2018-06-30T18:14:50.364Z,29.94
2018-06-30T18:17:19.992Z,30.22
2018-06-30T18:19:49.479Z,29.86
2018-06-30T18:22:19.059Z,30.18
2018-06-30T18:24:48.804Z,30.59
2018-06-30T18:27:18.430Z,30.68
2018-06-30T18:29:47.990Z,30.30
2018-06-30T18:32:17.534Z,31.49
2018-06-30T18:34:47.186Z,31.28
2018-06-30T18:37:16.771Z,31.55
2018-06-30T18:39:46.401Z,30.83
2018-06-30T18:42:15.991Z,31.62
2018-06-30T18:44:46.334Z,30.78
2018-06-30T18:47:16.382Z,30.21
2018-06-30T18:49:45.844Z,31.16
2018-06-30T18:52:15.376Z,31.69
2018-06-30T18:54:45.023Z,30.97
2018-06-30T18:57:14.589Z,31.17
2018-06-30T18:59:44.103Z,31.08
2018-06-30T19:02:14.077Z,31.16
2018-06-30T19:04:43.623Z,31.18
2018-06-30T19:07:13.103Z,30.89
2018-06-30T19:09:43.009Z,31.17
2018-06-30T19:12:12.593Z,31.79
2018-06-30T19:14:42.179Z,31.48
2018-06-30T19:17:11.675Z,32.00
2018-06-30T19:19:41.352Z,31.60
2018-06-30T19:22:10.827Z,31.84
2018-06-30T19:24:40.462Z,31.64
2018-06-30T19:27:09.970Z,32.64
2018-06-30T19:29:39.606Z,32.18
2018-06-30T19:32:09.787Z,32.72
2018-06-30T19:34:39.449Z,32.35
2018-06-30T19:37:23.223Z,32.76
2018-06-30T19:39:53.166Z,31.96
2018-06-30T19:42:22.832Z,32.57
2018-06-30T19:44:52.864Z,32.39
2018-06-30T19:47:23.013Z,33.13
2018-06-30T19:49:52.539Z,32.76
2018-06-30T19:52:22.295Z,33.12
2018-06-30T19:54:51.869Z,33.70
2018-06-30T19:57:21.657Z,33.16
2018-06-30T19:59:51.233Z,34.14
2018-06-30T20:02:20.820Z,33.58
2018-06-30T20:04:50.476Z,33.54
2018-06-30T20:07:20.292Z,34.13
2018-06-30T20:09:49.792Z,33.72
2018-06-30T20:12:19.405Z,34.24
2018-06-30T20:14:49.172Z,34.69
2018-06-30T20:17:18.750Z,34.15
2018-06-30T20:19:47.973Z,34.48
2018-06-30T20:22:17.538Z,34.60
2018-06-30T20:24:47.181Z,35.23
2018-06-30T20:27:16.788Z,35.21
2018-06-30T20:29:46.374Z,36.08
2018-06-30T20:32:15.992Z,36.22
2018-06-30T20:34:45.475Z,35.88
2018-06-30T20:37:15.083Z,35.88
2018-06-30T20:39:44.602Z,36.59
2018-06-30T20:42:14.143Z,36.69
2018-06-30T20:44:43.819Z,36.17
2018-06-30T20:47:13.312Z,36.96
2018-06-30T20:49:42.866Z,36.28
2018-06-30T20:52:12.400Z,37.06
2018-06-30T20:54:41.944Z,36.90
2018-06-30T20:57:11.119Z,37.66
2018-06-30T20:59:41.045Z,37.19
2018-06-30T21:02:10.595Z,37.25
2018-06-30T21:04:40.152Z,37.71
2018-06-30T21:07:09.665Z,37.17
2018-06-30T21:09:39.136Z,38.07
2018-06-30T21:12:08.619Z,38.04
2018-06-30T21:14:38.138Z,38.03
2018-06-30T21:17:07.783Z,38.53
2018-06-30T21:19:37.325Z,38.80
2018-06-30T21:22:07.157Z,38.94
2018-06-30T21:24:36.736Z,39.61
2018-06-30T21:27:06.399Z,39.38
2018-06-30T21:29:36.069Z,38.82
2018-06-30T21:32:06.098Z,39.47
2018-06-30T21:34:48.509Z,39.36
2018-06-30T21:37:18.238Z,38.92
2018-06-30T21:39:48.283Z,39.53
2018-06-30T21:42:17.886Z,39.68
2018-06-30T21:44:47.529Z,40.14
2018-06-30T21:47:17.170Z,39.21
2018-06-30T21:49:46.824Z,40.01
2018-06-30T21:52:16.899Z,40.26
2018-06-30T21:54:46.448Z,40.18
2018-06-30T21:57:15.980Z,41.37
2018-06-30T21:59:45.544Z,40.97
2018-06-30T22:02:15.238Z,41.37
2018-06-30T22:04:44.866Z,41.30
2018-06-30T22:07:14.472Z,41.94
2018-06-30T22:09:44.096Z,41.98
2018-06-30T22:12:13.637Z,42.48
2018-06-30T22:14:43.183Z,41.82
2018-06-30T22:17:12.791Z,42.86
2018-06-30T22:19:42.295Z,42.56
2018-06-30T22:22:11.730Z,43.26
2018-06-30T22:24:41.322Z,42.27
2018-06-30T22:27:11.015Z,43.01
2018-06-30T22:29:40.539Z,43.78
2018-06-30T22:32:10.218Z,43.12
2018-06-30T22:34:40.059Z,42.92
2018-06-30T22:37:09.599Z,43.27
2018-06-30T22:39:55.976Z,43.16
2018-06-30T22:42:25.543Z,43.47
2018-06-30T22:44:55.048Z,43.34
2018-06-30T22:47:24.635Z,44.03
2018-06-30T22:49:54.171Z,43.76
2018-06-30T22:52:23.734Z,43.93
2018-06-30T22:54:53.296Z,43.64
2018-06-30T22:57:22.799Z,44.23
2018-06-30T22:59:52.308Z,44.87
2018-06-30T23:02:21.966Z,44.27
2018-06-30T23:04:51.467Z,44.59
2018-06-30T23:07:20.946Z,44.28
2018-06-30T23:09:51.028Z,43.96
2018-06-30T23:12:20.731Z,43.72
2018-06-30T23:14:50.195Z,43.70
2018-06-30T23:17:19.688Z,44.06
2018-06-30T23:19:49.157Z,44.69
2018-06-30T23:23:27.346Z,43.75
2018-06-30T23:25:57.101Z,44.88
2018-06-30T23:28:26.654Z,45.29
2018-06-30T23:30:56.312Z,44.59
2018-06-30T23:33:25.968Z,45.65
2018-06-30T23:35:56.127Z,44.45
2018-06-30T23:38:25.644Z,44.35
2018-06-30T23:40:55.109Z,44.92
2018-06-30T23:43:24.664Z,45.10
2018-06-30T23:45:54.319Z,45.44
2018-06-30T23:48:23.946Z,45.08
2018-06-30T23:50:53.451Z,44.87
2018-06-30T23:53:22.999Z,44.36
2018-06-30T23:55:52.530Z,45.44
2018-06-30T23:58:22.089Z,45.43
